createdAt,value
2022-12-27T00:00:43.475Z,3.17
2022-12-27T00:01:45.647Z,3.09
2022-12-27T00:02:47.294Z,3.05
2022-12-27T00:03:49.541Z,2.97
2022-12-27T00:04:51.322Z,3.00
2022-12-27T00:05:52.954Z,3.14
2022-12-27T00:06:54.849Z,3.26
2022-12-27T00:07:56.405Z,3.36
2022-12-27T00:08:58.962Z,3.45
2022-12-27T00:10:00.583Z,3.53
2022-12-27T00:11:11.727Z,3.54
2022-12-27T00:12:13.322Z,3.56
2022-12-27T00:13:14.890Z,3.63
2022-12-27T00:14:16.450Z,3.69
2022-12-27T00:15:18.050Z,3.56
2022-12-27T00:16:21.119Z,3.47
2022-12-27T00:17:22.758Z,3.35
2022-12-27T00:18:24.356Z,3.36
2022-12-27T00:19:25.904Z,3.46
2022-12-27T00:20:27.465Z,3.53
2022-12-27T00:21:29.136Z,3.45
2022-12-27T00:22:30.654Z,3.43
2022-12-27T00:23:37.944Z,3.49
2022-12-27T00:24:40.315Z,3.48
2022-12-27T00:25:41.847Z,3.48
2022-12-27T00:26:43.388Z,3.56
2022-12-27T00:27:44.905Z,3.69
2022-12-27T00:28:46.557Z,3.78
2022-12-27T00:29:48.098Z,3.88
2022-12-27T00:30:54.717Z,3.89
2022-12-27T00:31:56.398Z,3.84
2022-12-27T00:32:57.927Z,3.73
2022-12-27T00:34:01.802Z,3.75
2022-12-27T00:35:03.677Z,3.70
2022-12-27T00:36:08.193Z,3.69
2022-12-27T00:37:09.733Z,3.61
2022-12-27T00:38:11.243Z,3.43
2022-12-27T00:39:12.781Z,3.27
2022-12-27T00:40:14.326Z,3.20
2022-12-27T00:41:17.301Z,3.22
2022-12-27T00:42:18.857Z,3.26
2022-12-27T00:43:20.419Z,3.35
2022-12-27T00:44:21.948Z,3.34
2022-12-27T00:45:23.522Z,3.29
2022-12-27T00:46:25.145Z,3.24
2022-12-27T00:47:26.653Z,3.26
2022-12-27T00:48:28.337Z,3.31
2022-12-27T00:49:29.970Z,3.24
2022-12-27T00:50:31.628Z,3.12
2022-12-27T00:51:33.223Z,3.13
2022-12-27T00:52:34.776Z,3.20
2022-12-27T00:53:37.044Z,3.29
2022-12-27T00:54:38.775Z,3.24
2022-12-27T00:55:44.005Z,3.07
2022-12-27T00:56:45.604Z,2.99
2022-12-27T00:57:47.172Z,2.93
2022-12-27T00:58:53.265Z,2.89
2022-12-27T00:59:54.942Z,2.76
2022-12-27T01:01:09.263Z,2.66
2022-12-27T01:02:10.837Z,2.63
2022-12-27T01:03:12.407Z,2.58
2022-12-27T01:04:14.649Z,2.52
2022-12-27T01:05:16.731Z,2.46
2022-12-27T01:06:22.786Z,2.26
2022-12-27T01:07:24.890Z,2.18
2022-12-27T01:08:26.461Z,2.26
2022-12-27T01:09:28.054Z,2.38
2022-12-27T01:10:29.577Z,2.44
2022-12-27T01:11:32.097Z,2.50
2022-12-27T01:12:35.040Z,2.60
2022-12-27T01:13:36.973Z,2.69
2022-12-27T01:14:38.522Z,2.81
2022-12-27T01:15:42.466Z,2.93
2022-12-27T01:16:44.343Z,3.00
2022-12-27T01:17:45.973Z,3.04
2022-12-27T01:18:48.327Z,3.09
2022-12-27T01:19:49.855Z,3.12
2022-12-27T01:20:51.441Z,3.13
2022-12-27T01:21:53.007Z,3.19
2022-12-27T01:22:54.945Z,3.25
2022-12-27T01:23:56.661Z,3.29
2022-12-27T01:24:58.173Z,3.20
2022-12-27T01:26:01.917Z,3.20
2022-12-27T01:27:03.516Z,3.24
2022-12-27T01:28:05.277Z,3.30
2022-12-27T01:29:06.789Z,3.32
2022-12-27T01:30:09.125Z,3.37
2022-12-27T01:31:14.329Z,3.40
2022-12-27T01:32:15.899Z,3.32
2022-12-27T01:33:17.446Z,3.25
2022-12-27T01:34:19.210Z,3.16
2022-12-27T01:35:20.736Z,3.09
2022-12-27T01:36:23.923Z,3.14
2022-12-27T01:37:28.864Z,3.12
2022-12-27T01:38:30.468Z,3.04
2022-12-27T01:39:32.079Z,3.09
2022-12-27T01:40:36.349Z,3.17
2022-12-27T01:42:00.633Z,3.24
2022-12-27T01:43:02.403Z,3.17
2022-12-27T01:44:34.724Z,3.11
2022-12-27T01:45:37.142Z,3.15
2022-12-27T01:46:38.760Z,3.24
2022-12-27T01:47:58.973Z,3.25
2022-12-27T01:49:03.243Z,3.30
2022-12-27T01:50:29.817Z,3.39
2022-12-27T01:51:31.451Z,3.51
2022-12-27T01:52:39.775Z,3.59
2022-12-27T01:53:44.773Z,3.64
2022-12-27T01:54:46.674Z,3.68
2022-12-27T01:56:00.312Z,3.69
2022-12-27T01:57:02.692Z,3.64
2022-12-27T01:58:13.294Z,3.68
2022-12-27T01:59:15.316Z,3.74
2022-12-27T02:00:17.610Z,3.77
2022-12-27T02:01:23.508Z,3.80
2022-12-27T02:02:25.318Z,3.83
2022-12-27T02:03:30.205Z,3.86
2022-12-27T02:04:32.785Z,3.88
2022-12-27T02:05:35.327Z,3.92
2022-12-27T02:06:39.470Z,3.97
2022-12-27T02:07:55.749Z,4.01
2022-12-27T02:09:28.491Z,4.01
2022-12-27T02:10:31.248Z,4.01
2022-12-27T02:11:51.161Z,4.01
2022-12-27T02:12:52.944Z,4.05
2022-12-27T02:13:54.674Z,4.02
2022-12-27T02:14:56.196Z,3.97
2022-12-27T02:15:57.756Z,3.96
2022-12-27T02:17:02.188Z,3.93
2022-12-27T02:18:04.250Z,3.91
2022-12-27T02:19:30.723Z,3.82
2022-12-27T02:20:59.178Z,3.53
2022-12-27T02:22:15.878Z,3.32
2022-12-27T02:23:50.065Z,3.22
2022-12-27T02:25:03.690Z,3.24
2022-12-27T02:26:14.366Z,3.33
2022-12-27T02:27:34.480Z,3.42
2022-12-27T02:29:05.334Z,3.43
2022-12-27T02:30:10.113Z,3.38
2022-12-27T02:31:17.080Z,3.35
2022-12-27T02:32:49.566Z,3.42
2022-12-27T02:33:53.325Z,3.47
2022-12-27T02:35:14.678Z,3.50
2022-12-27T02:36:23.869Z,3.47
2022-12-27T02:37:29.342Z,3.44
2022-12-27T02:38:36.202Z,3.45
2022-12-27T02:39:42.211Z,3.44
2022-12-27T02:41:04.253Z,3.43
2022-12-27T02:42:25.084Z,3.14
2022-12-27T02:43:46.887Z,2.76
2022-12-27T02:45:07.401Z,2.79
2022-12-27T02:46:35.795Z,2.93
2022-12-27T02:47:56.457Z,2.85
2022-12-27T02:49:17.526Z,2.70
2022-12-27T02:50:37.979Z,2.72
2022-12-27T02:52:24.973Z,2.81
2022-12-27T02:53:57.993Z,2.76
2022-12-27T02:54:59.503Z,2.66
2022-12-27T02:56:35.158Z,2.44
2022-12-27T02:57:55.557Z,2.31
2022-12-27T02:59:15.859Z,2.37
2022-12-27T03:00:38.398Z,2.48
2022-12-27T03:01:58.297Z,2.60
2022-12-27T03:03:21.138Z,2.59
2022-12-27T03:04:22.645Z,2.55
2022-12-27T03:06:09.439Z,2.49
2022-12-27T03:07:17.384Z,2.50
2022-12-27T03:08:31.689Z,2.60
2022-12-27T03:10:01.728Z,2.72
2022-12-27T03:11:21.989Z,2.62
2022-12-27T03:13:19.579Z,2.57
2022-12-27T03:14:47.443Z,2.49
2022-12-27T03:16:08.812Z,2.61
2022-12-27T03:17:49.043Z,2.75
2022-12-27T03:19:02.960Z,2.62
2022-12-27T03:20:28.123Z,2.43
2022-12-27T03:21:52.965Z,2.57
2022-12-27T03:23:15.230Z,2.41
2022-12-27T03:24:38.128Z,2.15
2022-12-27T03:25:42.664Z,1.59
2022-12-27T03:26:50.148Z,1.49
2022-12-27T03:28:12.834Z,1.67
2022-12-27T03:29:36.756Z,1.84
2022-12-27T03:30:58.774Z,1.92
2022-12-27T03:32:23.726Z,1.87
2022-12-27T03:33:27.570Z,1.88
2022-12-27T03:34:36.007Z,1.87
2022-12-27T03:36:06.820Z,1.83
2022-12-27T03:37:32.616Z,1.73
2022-12-27T03:38:43.309Z,1.83
2022-12-27T03:40:08.105Z,1.91
2022-12-27T03:41:51.604Z,1.93
2022-12-27T03:43:13.911Z,1.79
2022-12-27T03:44:25.073Z,1.69
2022-12-27T03:45:53.340Z,1.72
2022-12-27T03:47:00.736Z,1.72
2022-12-27T03:48:06.305Z,1.49
2022-12-27T03:49:19.986Z,1.34
2022-12-27T03:50:28.548Z,1.50
2022-12-27T03:51:36.089Z,1.66
2022-12-27T03:53:00.946Z,1.69
2022-12-27T03:54:10.447Z,1.59
2022-12-27T03:55:12.598Z,1.57
2022-12-27T03:56:14.379Z,1.48
2022-12-27T03:57:19.155Z,1.38
2022-12-27T03:58:21.027Z,1.18
2022-12-27T03:59:22.867Z,1.10
2022-12-27T04:00:24.450Z,1.06
2022-12-27T04:01:26.090Z,0.99
2022-12-27T04:02:27.911Z,0.93
2022-12-27T04:03:29.586Z,0.94
2022-12-27T04:04:31.494Z,1.17
2022-12-27T04:05:33.009Z,1.33
2022-12-27T04:06:34.511Z,1.36
2022-12-27T04:07:36.102Z,1.41
2022-12-27T04:08:56.095Z,1.37
2022-12-27T04:10:16.154Z,1.36
2022-12-27T04:11:36.154Z,1.48
2022-12-27T04:12:56.790Z,1.57
2022-12-27T04:14:16.671Z,1.56
2022-12-27T04:15:36.609Z,1.59
2022-12-27T04:16:56.729Z,1.26
2022-12-27T04:18:16.810Z,1.22
2022-12-27T04:19:36.668Z,1.15
2022-12-27T04:20:57.007Z,1.02
2022-12-27T04:22:17.301Z,0.74
2022-12-27T04:23:37.530Z,0.83
2022-12-27T04:24:57.686Z,0.82
2022-12-27T04:26:17.750Z,0.72
2022-12-27T04:27:37.545Z,0.78
2022-12-27T04:28:57.709Z,0.94
2022-12-27T04:30:18.157Z,0.99
2022-12-27T04:31:38.845Z,0.93
2022-12-27T04:32:59.156Z,1.05
2022-12-27T04:34:19.226Z,1.09
2022-12-27T04:35:21.351Z,1.22
2022-12-27T04:36:22.915Z,1.32
2022-12-27T04:37:24.444Z,1.41
2022-12-27T04:38:25.955Z,1.51
2022-12-27T04:39:27.546Z,1.61
2022-12-27T04:40:47.418Z,1.71
2022-12-27T04:42:07.343Z,1.61
2022-12-27T04:43:28.191Z,1.60
2022-12-27T04:44:48.553Z,1.60
2022-12-27T04:46:08.577Z,1.62
2022-12-27T04:47:37.627Z,1.44
2022-12-27T04:48:58.076Z,1.44
2022-12-27T04:50:18.656Z,1.32
2022-12-27T04:51:38.845Z,1.23
2022-12-27T04:52:58.803Z,1.19
2022-12-27T04:54:18.671Z,1.17
2022-12-27T04:55:21.975Z,1.11
2022-12-27T04:56:23.491Z,1.04
2022-12-27T04:57:26.873Z,1.06
2022-12-27T04:58:28.832Z,1.15
2022-12-27T04:59:48.712Z,1.14
2022-12-27T05:01:14.008Z,1.04
2022-12-27T05:02:18.290Z,1.03
2022-12-27T05:03:23.259Z,1.03
2022-12-27T05:04:25.232Z,1.07
2022-12-27T05:05:27.312Z,0.94
2022-12-27T05:06:28.905Z,0.92
2022-12-27T05:07:49.472Z,0.98
2022-12-27T05:09:09.529Z,1.12
2022-12-27T05:10:30.207Z,1.17
2022-12-27T05:11:50.067Z,1.18
2022-12-27T05:13:10.108Z,1.11
2022-12-27T05:14:14.753Z,1.09
2022-12-27T05:15:16.472Z,1.14
2022-12-27T05:16:18.087Z,1.16
2022-12-27T05:17:19.746Z,1.23
2022-12-27T05:18:21.390Z,1.25
2022-12-27T05:19:23.045Z,1.33
2022-12-27T05:20:24.739Z,1.30
2022-12-27T05:21:26.700Z,1.31
2022-12-27T05:22:46.451Z,1.36
2022-12-27T05:24:06.799Z,1.39
2022-12-27T05:25:28.106Z,1.39
2022-12-27T05:26:31.371Z,1.46
2022-12-27T05:27:32.983Z,1.46
2022-12-27T05:28:34.579Z,1.42
2022-12-27T05:29:36.122Z,1.35
2022-12-27T05:30:41.062Z,1.37
2022-12-27T05:31:42.964Z,1.36
2022-12-27T05:32:44.540Z,1.32
2022-12-27T05:33:46.520Z,1.34
2022-12-27T05:34:48.041Z,1.33
2022-12-27T05:35:49.609Z,1.28
2022-12-27T05:36:51.106Z,1.36
2022-12-27T05:37:55.711Z,1.38
2022-12-27T05:38:58.473Z,1.36
2022-12-27T05:39:59.998Z,1.27
2022-12-27T05:41:02.701Z,1.26
2022-12-27T05:42:04.383Z,1.16
2022-12-27T05:43:06.035Z,1.01
2022-12-27T05:44:07.894Z,1.10
2022-12-27T05:45:09.590Z,1.19
2022-12-27T05:46:17.748Z,1.22
2022-12-27T05:47:19.347Z,1.20
2022-12-27T05:48:21.929Z,1.28
2022-12-27T05:49:23.528Z,1.32
2022-12-27T05:50:25.126Z,1.36
2022-12-27T05:51:26.643Z,1.51
2022-12-27T05:52:30.450Z,1.82
2022-12-27T05:53:31.979Z,2.50
2022-12-27T05:54:33.580Z,2.29
2022-12-27T05:55:35.121Z,2.05
2022-12-27T05:56:37.403Z,1.76
2022-12-27T05:57:39.068Z,1.49
2022-12-27T05:58:40.986Z,1.32
2022-12-27T05:59:42.516Z,1.35
2022-12-27T06:00:44.033Z,1.46
2022-12-27T06:01:45.731Z,1.52
2022-12-27T06:02:47.466Z,1.60
2022-12-27T06:03:49.119Z,1.69
2022-12-27T06:04:50.685Z,1.78
2022-12-27T06:05:53.072Z,1.87
2022-12-27T06:06:54.649Z,1.93
2022-12-27T06:07:56.344Z,1.92
2022-12-27T06:08:58.570Z,1.95
2022-12-27T06:10:00.147Z,1.99
2022-12-27T06:11:08.047Z,2.06
2022-12-27T06:12:09.728Z,2.08
2022-12-27T06:13:11.364Z,1.97
2022-12-27T06:14:13.143Z,1.95
2022-12-27T06:15:16.011Z,1.97
2022-12-27T06:16:18.913Z,1.95
2022-12-27T06:17:23.765Z,1.87
2022-12-27T06:18:25.471Z,1.77
2022-12-27T06:19:27.498Z,1.58
2022-12-27T06:20:32.640Z,1.33
2022-12-27T06:21:34.394Z,1.20
2022-12-27T06:22:37.125Z,1.17
2022-12-27T06:23:41.173Z,1.05
2022-12-27T06:24:44.012Z,0.92
2022-12-27T06:25:45.730Z,0.89
2022-12-27T06:26:48.278Z,1.02
2022-12-27T06:27:49.965Z,1.14
2022-12-27T06:28:52.540Z,1.26
2022-12-27T06:29:54.073Z,1.38
2022-12-27T06:30:57.929Z,1.53
2022-12-27T06:31:59.695Z,1.59
2022-12-27T06:33:01.534Z,1.55
2022-12-27T06:34:03.206Z,1.42
2022-12-27T06:35:05.541Z,1.48
2022-12-27T06:36:08.822Z,1.60
2022-12-27T06:37:10.491Z,1.70
2022-12-27T06:38:12.037Z,1.74
2022-12-27T06:39:13.627Z,1.64
2022-12-27T06:40:15.325Z,1.53
2022-12-27T06:41:18.540Z,1.62
2022-12-27T06:42:20.116Z,1.75
2022-12-27T06:43:21.705Z,1.81
2022-12-27T06:44:23.267Z,1.90
2022-12-27T06:45:24.929Z,1.97
2022-12-27T06:46:26.638Z,2.06
2022-12-27T06:47:28.219Z,2.13
2022-12-27T06:48:29.948Z,2.19
2022-12-27T06:49:31.536Z,2.29
2022-12-27T06:50:33.107Z,2.39
2022-12-27T06:51:34.623Z,2.42
2022-12-27T06:52:36.339Z,2.37
2022-12-27T06:53:38.259Z,2.47
2022-12-27T06:54:41.418Z,2.56
2022-12-27T06:55:42.962Z,2.45
2022-12-27T06:56:44.712Z,2.31
2022-12-27T06:57:46.254Z,2.36
2022-12-27T06:58:49.197Z,2.51
2022-12-27T06:59:54.031Z,2.59
2022-12-27T07:00:55.845Z,2.36
2022-12-27T07:01:57.594Z,2.07
2022-12-27T07:02:59.232Z,1.89
2022-12-27T07:04:01.101Z,2.00
2022-12-27T07:05:02.728Z,2.09
2022-12-27T07:06:05.688Z,1.83
2022-12-27T07:07:10.812Z,1.80
2022-12-27T07:08:15.198Z,1.97
2022-12-27T07:09:16.863Z,2.15
2022-12-27T07:10:18.579Z,2.30
2022-12-27T07:11:22.338Z,2.29
2022-12-27T07:12:36.301Z,2.23
2022-12-27T07:13:41.411Z,2.40
2022-12-27T07:14:43.174Z,2.59
2022-12-27T07:15:44.803Z,2.74
2022-12-27T07:16:49.180Z,2.86
2022-12-27T07:17:50.860Z,2.98
2022-12-27T07:18:54.242Z,3.13
2022-12-27T07:19:55.857Z,3.28
2022-12-27T07:20:57.643Z,3.41
2022-12-27T07:21:59.201Z,3.54
2022-12-27T07:23:00.736Z,3.58
2022-12-27T07:24:02.336Z,3.68
2022-12-27T07:25:04.583Z,3.80
2022-12-27T07:26:08.954Z,3.98
2022-12-27T07:27:10.463Z,4.15
2022-12-27T07:28:12.002Z,4.13
2022-12-27T07:29:13.632Z,4.06
2022-12-27T07:30:15.280Z,4.05
2022-12-27T07:31:20.121Z,4.11
2022-12-27T07:32:21.793Z,4.12
2022-12-27T07:33:23.319Z,4.35
2022-12-27T07:34:26.124Z,4.53
2022-12-27T07:35:27.698Z,4.66
2022-12-27T07:36:34.456Z,4.79
2022-12-27T07:37:36.069Z,4.82
2022-12-27T07:38:37.688Z,4.92
2022-12-27T07:39:39.235Z,5.02
2022-12-27T07:40:40.906Z,5.04
2022-12-27T07:41:42.551Z,5.17
2022-12-27T07:42:44.093Z,5.25
2022-12-27T07:43:46.192Z,5.35
2022-12-27T07:44:47.905Z,5.36
2022-12-27T07:45:49.506Z,5.39
2022-12-27T07:46:51.326Z,5.49
2022-12-27T07:47:53.372Z,5.51
2022-12-27T07:48:56.532Z,5.51
2022-12-27T07:49:58.116Z,5.58
2022-12-27T07:50:59.958Z,5.61
2022-12-27T07:52:01.558Z,5.71
2022-12-27T07:53:03.232Z,5.76
2022-12-27T07:54:05.185Z,5.87
2022-12-27T07:55:07.050Z,5.90
2022-12-27T07:56:23.454Z,5.94
2022-12-27T07:57:29.520Z,5.80
2022-12-27T07:58:31.081Z,5.78
2022-12-27T07:59:32.716Z,5.89
2022-12-27T08:00:34.387Z,5.97
2022-12-27T08:02:01.727Z,6.04
2022-12-27T08:03:06.586Z,6.22
2022-12-27T08:04:08.285Z,6.31
2022-12-27T08:05:10.051Z,6.36
2022-12-27T08:06:35.122Z,6.51
2022-12-27T08:07:38.185Z,6.54
2022-12-27T08:08:43.217Z,6.50
2022-12-27T08:09:46.552Z,6.46
2022-12-27T08:10:48.185Z,6.54
2022-12-27T08:11:49.791Z,6.66
2022-12-27T08:12:51.348Z,6.80
2022-12-27T08:13:53.392Z,6.95
2022-12-27T08:14:54.919Z,7.03
2022-12-27T08:15:56.592Z,7.10
2022-12-27T08:17:03.836Z,7.19
2022-12-27T08:18:05.664Z,7.24
2022-12-27T08:19:08.623Z,7.24
2022-12-27T08:20:19.252Z,7.35
2022-12-27T08:21:21.035Z,7.42
2022-12-27T08:22:24.169Z,7.46
2022-12-27T08:23:25.731Z,7.54
2022-12-27T08:24:27.268Z,7.56
2022-12-27T08:25:29.749Z,7.59
2022-12-27T08:26:31.417Z,7.53
2022-12-27T08:27:33.133Z,7.53
2022-12-27T08:28:35.110Z,7.62
2022-12-27T08:29:37.851Z,7.68
2022-12-27T08:30:41.112Z,7.67
2022-12-27T08:31:42.662Z,7.59
2022-12-27T08:32:44.195Z,7.63
2022-12-27T08:33:45.819Z,7.71
2022-12-27T08:34:47.888Z,7.78
2022-12-27T08:35:54.059Z,7.83
2022-12-27T08:36:57.411Z,7.91
2022-12-27T08:38:02.458Z,8.03
2022-12-27T08:39:04.078Z,8.09
2022-12-27T08:40:06.278Z,8.16
2022-12-27T08:41:07.836Z,8.23
2022-12-27T08:42:12.673Z,8.27
2022-12-27T08:43:14.607Z,8.21
2022-12-27T08:44:16.194Z,8.24
2022-12-27T08:45:17.738Z,8.33
2022-12-27T08:46:19.713Z,8.21
2022-12-27T08:47:21.676Z,8.17
2022-12-27T08:48:23.261Z,8.20
2022-12-27T08:49:24.871Z,7.90
2022-12-27T08:50:27.774Z,7.56
2022-12-27T08:51:35.950Z,7.36
2022-12-27T08:52:41.883Z,6.91
2022-12-27T08:53:43.633Z,6.82
2022-12-27T08:54:45.170Z,6.88
2022-12-27T08:55:46.760Z,6.87
2022-12-27T08:56:48.278Z,6.80
2022-12-27T08:57:49.909Z,6.74
2022-12-27T08:58:51.483Z,6.51
2022-12-27T08:59:53.109Z,6.43
2022-12-27T09:00:54.821Z,6.24
2022-12-27T09:01:56.555Z,6.18
2022-12-27T09:02:58.729Z,6.05
2022-12-27T09:04:00.294Z,6.13
2022-12-27T09:05:01.939Z,6.25
2022-12-27T09:06:16.268Z,6.49
2022-12-27T09:07:17.863Z,6.58
2022-12-27T09:08:19.467Z,6.71
2022-12-27T09:09:21.252Z,6.61
2022-12-27T09:10:23.967Z,6.37
2022-12-27T09:11:30.560Z,6.33
2022-12-27T09:12:33.614Z,6.40
2022-12-27T09:13:35.202Z,6.53
2022-12-27T09:14:36.799Z,6.62
2022-12-27T09:15:38.752Z,6.61
2022-12-27T09:16:40.404Z,6.63
2022-12-27T09:17:42.272Z,6.55
2022-12-27T09:18:44.372Z,6.53
2022-12-27T09:19:45.922Z,6.68
2022-12-27T09:20:47.497Z,6.67
2022-12-27T09:21:49.033Z,6.62
2022-12-27T09:22:52.131Z,6.85
2022-12-27T09:23:55.220Z,7.02
2022-12-27T09:24:57.100Z,7.11
2022-12-27T09:25:58.690Z,7.12
2022-12-27T09:27:00.207Z,7.26
2022-12-27T09:28:02.070Z,7.47
2022-12-27T09:29:04.288Z,7.63
2022-12-27T09:30:07.750Z,7.79
2022-12-27T09:31:11.079Z,7.87
2022-12-27T09:32:12.640Z,8.01
2022-12-27T09:33:14.161Z,7.87
2022-12-27T09:34:15.728Z,7.56
2022-12-27T09:35:17.578Z,7.35
2022-12-27T09:36:21.648Z,7.40
2022-12-27T09:37:23.190Z,7.58
2022-12-27T09:38:24.719Z,7.54
2022-12-27T09:39:26.238Z,7.50
2022-12-27T09:40:27.831Z,7.58
2022-12-27T09:43:20.770Z,7.60
2022-12-27T09:44:46.703Z,7.62
2022-12-27T09:45:52.044Z,7.43
2022-12-27T09:47:12.647Z,7.35
2022-12-27T09:48:32.592Z,7.28
2022-12-27T09:49:45.650Z,7.56
2022-12-27T09:50:55.532Z,7.76
2022-12-27T09:52:13.056Z,7.75
2022-12-27T09:53:24.911Z,7.93
2022-12-27T09:54:37.296Z,8.05
2022-12-27T09:55:51.703Z,7.98
2022-12-27T09:57:18.913Z,8.19
2022-12-27T09:58:40.589Z,8.45
2022-12-27T09:59:47.205Z,8.69
2022-12-27T10:00:52.794Z,8.83
2022-12-27T10:01:54.427Z,8.90
2022-12-27T10:02:57.983Z,8.90
2022-12-27T10:04:00.549Z,8.93
2022-12-27T10:05:20.843Z,8.92
2022-12-27T10:06:31.459Z,8.87
2022-12-27T10:07:57.507Z,8.95
2022-12-27T10:09:21.505Z,8.78
2022-12-27T10:10:35.406Z,8.85
2022-12-27T10:11:47.719Z,8.96
2022-12-27T10:12:55.384Z,8.94
2022-12-27T10:14:00.916Z,8.90
2022-12-27T10:15:14.772Z,8.88
2022-12-27T10:16:40.492Z,9.03
2022-12-27T10:17:42.014Z,9.18
2022-12-27T10:19:32.308Z,9.36
2022-12-27T10:20:55.403Z,9.49
2022-12-27T10:22:28.919Z,9.49
2022-12-27T10:23:34.271Z,9.55
2022-12-27T10:24:48.990Z,9.34
2022-12-27T10:25:58.101Z,9.19
2022-12-27T10:26:59.988Z,8.99
2022-12-27T10:28:31.479Z,8.96
2022-12-27T10:29:34.149Z,9.12
2022-12-27T10:30:35.749Z,9.19
2022-12-27T10:31:42.628Z,9.02
2022-12-27T10:32:44.604Z,8.97
2022-12-27T10:33:48.485Z,9.09
2022-12-27T10:35:00.618Z,9.36
2022-12-27T10:36:14.460Z,9.48
2022-12-27T10:37:16.640Z,9.59
2022-12-27T10:38:19.448Z,9.67
2022-12-27T10:39:27.798Z,9.72
2022-12-27T10:40:43.292Z,9.71
2022-12-27T10:41:50.686Z,9.75
2022-12-27T10:43:02.880Z,9.83
2022-12-27T10:44:11.369Z,9.93
2022-12-27T10:45:42.741Z,10.03
2022-12-27T10:46:51.222Z,10.07
2022-12-27T10:47:56.019Z,10.12
2022-12-27T10:49:23.294Z,10.14
2022-12-27T10:50:27.684Z,10.18
2022-12-27T10:51:39.416Z,10.13
2022-12-27T10:52:41.053Z,10.09
2022-12-27T10:53:45.601Z,10.10
2022-12-27T10:54:52.513Z,10.11
2022-12-27T10:56:09.971Z,10.07
2022-12-27T10:57:26.986Z,10.03
2022-12-27T10:58:31.469Z,10.01
2022-12-27T10:59:33.083Z,9.99
2022-12-27T11:00:34.910Z,9.95
2022-12-27T11:01:36.661Z,10.02
2022-12-27T11:02:49.947Z,10.07
2022-12-27T11:03:51.967Z,10.13
2022-12-27T11:04:59.464Z,10.15
2022-12-27T11:06:07.529Z,10.11
2022-12-27T11:07:18.777Z,10.14
2022-12-27T11:08:21.410Z,10.18
2022-12-27T11:09:39.184Z,10.21
2022-12-27T11:10:40.881Z,10.17
2022-12-27T11:11:42.420Z,10.22
2022-12-27T11:13:03.436Z,10.34
2022-12-27T11:14:16.024Z,10.41
2022-12-27T11:15:20.724Z,10.40
2022-12-27T11:16:35.025Z,10.40
2022-12-27T11:17:46.962Z,10.36
2022-12-27T11:18:52.591Z,10.24
2022-12-27T11:19:56.216Z,10.23
2022-12-27T11:20:59.367Z,10.31
2022-12-27T11:22:07.049Z,10.39
2022-12-27T11:23:08.613Z,10.45
2022-12-27T11:24:16.411Z,10.55
2022-12-27T11:25:18.669Z,10.58
2022-12-27T11:26:26.540Z,10.66
2022-12-27T11:27:30.269Z,10.75
2022-12-27T11:28:38.401Z,10.70
2022-12-27T11:29:45.579Z,10.50
2022-12-27T11:30:59.165Z,10.26
2022-12-27T11:32:07.339Z,10.21
2022-12-27T11:33:26.896Z,10.35
2022-12-27T11:34:36.119Z,10.40
2022-12-27T11:35:47.621Z,10.51
2022-12-27T11:36:53.336Z,10.52
2022-12-27T11:37:55.258Z,10.51
2022-12-27T11:38:57.238Z,10.52
2022-12-27T11:40:21.636Z,10.49
2022-12-27T11:41:37.106Z,10.50
2022-12-27T11:42:49.591Z,10.59
2022-12-27T11:43:56.192Z,10.65
2022-12-27T11:45:07.224Z,10.63
2022-12-27T11:46:34.189Z,10.65
2022-12-27T11:47:54.132Z,10.72
2022-12-27T11:48:58.526Z,10.76
2022-12-27T11:50:22.572Z,10.83
2022-12-27T11:51:43.035Z,10.85
2022-12-27T11:52:53.630Z,10.87
2022-12-27T11:54:04.386Z,10.90
2022-12-27T11:55:21.133Z,10.92
2022-12-27T11:56:27.233Z,10.84
2022-12-27T11:58:04.174Z,10.64
2022-12-27T11:59:30.727Z,10.72
2022-12-27T12:00:54.622Z,10.80
2022-12-27T12:02:21.220Z,10.71
2022-12-27T12:03:55.835Z,10.66
2022-12-27T12:05:15.833Z,10.70
2022-12-27T12:06:34.451Z,10.76
2022-12-27T12:07:54.585Z,10.76
2022-12-27T12:09:23.341Z,10.78
2022-12-27T12:10:42.042Z,10.78
2022-12-27T12:11:55.508Z,10.84
2022-12-27T12:13:27.880Z,10.79
2022-12-27T12:15:21.384Z,10.71
2022-12-27T12:17:07.147Z,10.73
2022-12-27T12:18:14.424Z,10.67
2022-12-27T12:19:41.435Z,10.63
2022-12-27T12:21:16.901Z,10.58
2022-12-27T12:22:30.483Z,10.58
2022-12-27T12:24:10.613Z,10.62
2022-12-27T12:25:21.031Z,10.66
2022-12-27T12:26:25.177Z,10.69
2022-12-27T12:27:41.558Z,10.66
2022-12-27T12:29:18.316Z,10.62
2022-12-27T12:31:07.511Z,10.56
2022-12-27T12:32:23.721Z,10.53
2022-12-27T12:33:43.305Z,10.61
2022-12-27T12:35:23.927Z,10.62
2022-12-27T12:36:49.149Z,10.58
2022-12-27T12:38:20.687Z,10.62
2022-12-27T12:39:30.884Z,10.76
2022-12-27T12:41:10.090Z,10.96
2022-12-27T12:42:30.059Z,11.12
2022-12-27T12:43:56.947Z,11.03
2022-12-27T12:45:16.521Z,10.95
2022-12-27T12:46:27.508Z,10.92
2022-12-27T12:47:44.675Z,10.95
2022-12-27T12:48:49.088Z,10.97
2022-12-27T12:50:21.368Z,10.97
2022-12-27T12:51:35.642Z,11.11
2022-12-27T12:52:48.977Z,11.14
2022-12-27T12:54:27.014Z,11.22
2022-12-27T12:55:38.863Z,11.32
2022-12-27T12:57:28.487Z,11.41
2022-12-27T12:58:46.194Z,11.42
2022-12-27T13:00:09.342Z,11.49
2022-12-27T13:01:25.992Z,11.49
2022-12-27T13:02:36.829Z,11.46
2022-12-27T13:03:56.060Z,11.66
2022-12-27T13:05:15.952Z,11.62
2022-12-27T13:06:40.188Z,11.54
2022-12-27T13:07:55.821Z,11.63
2022-12-27T13:09:34.783Z,11.63
2022-12-27T13:11:14.424Z,11.73
2022-12-27T13:12:30.966Z,11.73
2022-12-27T13:13:48.145Z,11.74
2022-12-27T13:15:13.604Z,11.79
2022-12-27T13:16:34.743Z,11.77
2022-12-27T13:17:52.856Z,11.78
2022-12-27T13:19:28.909Z,11.78
2022-12-27T13:21:00.542Z,11.78
2022-12-27T13:22:05.150Z,11.78
2022-12-27T13:23:17.303Z,11.81
2022-12-27T13:24:29.416Z,11.80
2022-12-27T13:25:55.332Z,11.83
2022-12-27T13:27:13.754Z,11.81
2022-12-27T13:28:34.353Z,11.81
2022-12-27T13:30:11.298Z,11.83
2022-12-27T13:31:37.684Z,11.87
2022-12-27T13:33:02.041Z,11.92
2022-12-27T13:34:34.505Z,11.89
2022-12-27T13:36:21.026Z,11.94
2022-12-27T13:37:57.678Z,11.95
2022-12-27T13:39:17.894Z,11.96
2022-12-27T13:40:42.053Z,11.96
2022-12-27T13:42:13.409Z,11.93
2022-12-27T13:43:35.915Z,11.93
2022-12-27T13:44:46.570Z,11.92
2022-12-27T13:46:25.351Z,11.96
2022-12-27T13:47:59.111Z,11.96
2022-12-27T13:49:12.513Z,11.94
2022-12-27T13:50:35.026Z,11.95
2022-12-27T13:51:48.469Z,11.96
2022-12-27T13:52:59.814Z,11.97
2022-12-27T13:54:11.059Z,11.96
2022-12-27T13:55:24.698Z,11.93
2022-12-27T13:56:58.337Z,11.90
2022-12-27T13:58:22.139Z,11.86
2022-12-27T13:59:41.651Z,11.77
2022-12-27T14:01:01.474Z,11.72
2022-12-27T14:02:43.752Z,11.71
2022-12-27T14:04:00.173Z,11.60
2022-12-27T14:05:01.704Z,11.64
2022-12-27T14:06:17.454Z,11.55
2022-12-27T14:07:37.147Z,11.54
2022-12-27T14:08:57.233Z,11.55
2022-12-27T14:10:29.246Z,11.54
2022-12-27T14:12:09.522Z,11.41
2022-12-27T14:13:12.814Z,11.47
2022-12-27T14:14:17.826Z,11.50
2022-12-27T14:15:27.381Z,11.53
2022-12-27T14:16:44.555Z,11.53
2022-12-27T14:17:49.053Z,11.45
2022-12-27T14:18:56.669Z,11.39
2022-12-27T14:20:39.768Z,11.44
2022-12-27T14:22:02.293Z,11.43
2022-12-27T14:23:30.175Z,11.36
2022-12-27T14:24:59.529Z,11.34
2022-12-27T14:26:33.792Z,11.36
2022-12-27T14:27:57.195Z,11.32
2022-12-27T14:29:23.654Z,11.29
2022-12-27T14:30:46.530Z,11.36
2022-12-27T14:32:17.142Z,11.27
2022-12-27T14:33:45.984Z,11.18
2022-12-27T14:35:00.145Z,11.17
2022-12-27T14:36:23.292Z,11.15
2022-12-27T14:37:43.697Z,11.09
2022-12-27T14:39:10.954Z,11.16
2022-12-27T14:40:18.808Z,11.21
2022-12-27T14:41:57.186Z,11.24
2022-12-27T14:43:36.240Z,11.20
2022-12-27T14:44:57.980Z,11.06
2022-12-27T14:46:30.090Z,10.97
2022-12-27T14:47:49.787Z,10.86
2022-12-27T14:49:03.544Z,10.83
2022-12-27T14:50:13.860Z,10.88
2022-12-27T14:52:06.119Z,10.91
2022-12-27T14:53:36.446Z,10.95
2022-12-27T14:55:06.627Z,10.99
2022-12-27T14:56:26.770Z,11.00
2022-12-27T14:57:58.420Z,10.80
2022-12-27T14:59:09.597Z,10.68
2022-12-27T15:00:19.454Z,10.71
2022-12-27T15:01:39.363Z,10.69
2022-12-27T15:03:13.363Z,10.65
2022-12-27T15:04:49.215Z,10.68
2022-12-27T15:06:07.153Z,10.75
2022-12-27T15:07:14.922Z,10.78
2022-12-27T15:09:03.839Z,10.85
2022-12-27T15:10:42.809Z,10.86
2022-12-27T15:12:06.138Z,10.86
2022-12-27T15:13:29.868Z,10.77
2022-12-27T15:14:58.114Z,10.61
2022-12-27T15:16:37.616Z,10.52
2022-12-27T15:17:48.317Z,10.58
2022-12-27T15:18:56.053Z,10.64
2022-12-27T15:20:34.989Z,10.69
2022-12-27T15:22:13.707Z,10.68
2022-12-27T15:23:41.214Z,10.66
2022-12-27T15:25:15.000Z,10.74
2022-12-27T15:26:40.140Z,10.72
2022-12-27T15:27:47.633Z,10.69
2022-12-27T15:29:11.398Z,10.52
2022-12-27T15:30:25.324Z,10.38
2022-12-27T15:31:35.934Z,10.27
2022-12-27T15:33:16.028Z,10.19
2022-12-27T15:34:46.848Z,10.06
2022-12-27T15:35:54.338Z,9.95